Time;durP1;ratioP1;P1;durP2;ratioP2;P2;SDS_P1;SDS_P2;PMS_P1;PMS_P2;Temp;Humidity;BMP_temperature;BMP_pressure;BME280_temperature;BME280_humidity;BME280_pressure;Samples;Min_cycle;Max_cycle;Signal;HPM_P1;HPM_P2
2022/11/24 00:00:19;;;;;;;17.85;4.40;;;10.20;99.90;;;;;;2076503;28;20026;-71
2022/11/24 00:01:22;;;;;;;18.48;4.82;;;10.30;99.90;;;;;;2076146;28;20033;-71
2022/11/24 00:02:22;;;;;;;18.77;4.50;;;10.30;99.90;;;;;;2076584;28;20068;-71
2022/11/24 00:03:23;;;;;;;17.52;4.55;;;10.30;99.90;;;;;;2078350;28;20026;-71
2022/11/24 00:04:24;;;;;;;24.08;6.07;;;10.30;99.90;;;;;;2077623;28;20076;-71
2022/11/24 00:05:25;;;;;;;14.10;3.83;;;10.30;99.90;;;;;;2075855;28;20025;-71
2022/11/24 00:06:26;;;;;;;16.88;5.07;;;10.30;99.90;;;;;;2078843;28;20092;-71
2022/11/24 00:07:27;;;;;;;13.77;4.47;;;10.30;99.90;;;;;;2078019;28;20116;-71
2022/11/24 00:08:27;;;;;;;15.85;4.03;;;10.30;99.90;;;;;;2075374;28;20033;-71
2022/11/24 00:09:28;;;;;;;22.02;5.60;;;10.30;99.90;;;;;;2076863;28;20037;-71
2022/11/24 00:10:29;;;;;;;21.35;5.15;;;10.30;99.90;;;;;;2075730;28;20712;-71
2022/11/24 00:11:32;;;;;;;17.05;4.75;;;10.30;99.90;;;;;;2077218;28;20013;-71
2022/11/24 00:12:32;;;;;;;16.98;4.80;;;10.30;99.90;;;;;;2076327;28;20033;-71
2022/11/24 00:13:33;;;;;;;16.75;4.85;;;10.30;99.90;;;;;;2078159;28;20033;-71
2022/11/24 00:14:33;;;;;;;19.65;4.53;;;10.30;99.90;;;;;;2075757;28;20037;-71
2022/11/24 00:15:34;;;;;;;16.92;4.63;;;10.30;99.90;;;;;;2075552;28;20036;-71
2022/11/24 00:16:36;;;;;;;17.55;4.63;;;10.30;99.90;;;;;;2077085;28;20029;-71
2022/11/24 00:17:36;;;;;;;15.90;4.07;;;10.30;99.90;;;;;;2076680;28;20136;-71
2022/11/24 00:18:39;;;;;;;13.38;4.50;;;10.30;99.90;;;;;;2075171;28;20026;-71
2022/11/24 00:19:40;;;;;;;18.08;5.00;;;10.30;99.90;;;;;;2084799;28;20357;-71
2022/11/24 00:20:41;;;;;;;15.60;4.90;;;10.30;99.90;;;;;;2082595;28;20029;-71
2022/11/24 00:21:41;;;;;;;22.52;5.05;;;10.30;99.90;;;;;;2078322;28;20029;-71
2022/11/24 00:22:42;;;;;;;16.38;4.75;;;10.30;99.90;;;;;;2077021;28;20040;-71
2022/11/24 00:23:43;;;;;;;17.80;4.65;;;10.30;99.90;;;;;;2078446;28;20040;-71
2022/11/24 00:24:44;;;;;;;14.65;4.30;;;10.30;99.90;;;;;;2077343;28;20030;-71
2022/11/24 00:25:44;;;;;;;17.45;4.50;;;10.30;99.90;;;;;;2077412;28;20029;-71
2022/11/24 00:26:45;;;;;;;17.50;4.07;;;10.30;99.90;;;;;;2085861;28;20021;-71
2022/11/24 00:27:45;;;;;;;23.65;5.22;;;10.30;99.90;;;;;;2074862;28;20026;-71
2022/11/24 00:28:48;;;;;;;16.50;4.63;;;10.30;99.90;;;;;;2077055;28;20060;-71
2022/11/24 00:29:48;;;;;;;19.92;5.07;;;10.30;99.90;;;;;;2073309;28;20021;-71
2022/11/24 00:30:49;;;;;;;21.67;5.13;;;10.30;99.90;;;;;;2075623;28;20032;-71
2022/11/24 00:31:49;;;;;;;20.17;4.47;;;10.30;99.90;;;;;;2076117;28;20022;-71
2022/11/24 00:32:51;;;;;;;21.67;4.57;;;10.30;99.90;;;;;;2076706;28;20456;-71
2022/11/24 00:33:55;;;;;;;20.63;4.75;;;10.20;99.90;;;;;;2076838;28;20393;-71
2022/11/24 00:34:55;;;;;;;20.67;5.43;;;10.20;99.90;;;;;;2076543;28;20021;-71
2022/11/24 00:35:59;;;;;;;12.73;4.50;;;10.20;99.90;;;;;;2076312;28;20053;-71
2022/11/24 00:37:00;;;;;;;19.45;4.65;;;10.20;99.90;;;;;;2077483;28;20056;-71
2022/11/24 00:38:00;;;;;;;15.88;4.15;;;10.20;99.90;;;;;;2076733;28;20382;-71
2022/11/24 00:39:12;;;;;;;27.15;5.22;;;10.20;99.90;;;;;;2076412;28;20037;-71
2022/11/24 00:40:13;;;;;;;15.27;4.53;;;10.20;99.90;;;;;;2076619;28;20037;-71
2022/11/24 00:41:13;;;;;;;13.38;4.78;;;10.20;99.90;;;;;;2076123;28;20465;-71
2022/11/24 00:42:14;;;;;;;15.93;4.45;;;10.20;99.90;;;;;;2076838;28;20041;-71
2022/11/24 00:43:15;;;;;;;15.25;4.53;;;10.20;99.90;;;;;;2078216;28;20029;-71
2022/11/24 00:44:15;;;;;;;15.45;4.80;;;10.20;99.90;;;;;;2076930;28;20025;-71
2022/11/24 00:45:16;;;;;;;16.30;4.47;;;10.20;99.90;;;;;;2076528;28;20017;-71
2022/11/24 00:46:16;;;;;;;14.85;4.43;;;10.20;99.90;;;;;;2077216;28;20136;-71
2022/11/24 00:47:17;;;;;;;16.50;4.45;;;10.20;99.90;;;;;;2076827;28;20354;-71
2022/11/24 00:48:18;;;;;;;13.55;3.58;;;10.20;99.90;;;;;;2076033;28;20489;-71
2022/11/24 00:49:18;;;;;;;13.85;4.53;;;10.20;99.90;;;;;;2077439;28;20026;-71
2022/11/24 00:50:20;;;;;;;21.90;5.20;;;10.20;99.90;;;;;;2076683;28;20022;-71
2022/11/24 00:51:22;;;;;;;19.77;4.82;;;10.20;99.90;;;;;;2078358;28;20025;-71
2022/11/24 00:52:23;;;;;;;20.27;4.68;;;10.20;99.90;;;;;;2075609;28;21495;-71
2022/11/24 00:53:24;;;;;;;17.80;4.10;;;10.10;99.90;;;;;;2077883;28;20397;-71
2022/11/24 00:54:24;;;;;;;25.80;5.25;;;10.20;99.90;;;;;;2076571;28;20129;-71
2022/11/24 00:55:25;;;;;;;17.58;4.82;;;10.20;99.90;;;;;;2076073;28;20039;-71
2022/11/24 00:56:27;;;;;;;14.07;4.18;;;10.20;99.90;;;;;;2076278;28;20023;-71
2022/11/24 00:57:28;;;;;;;22.15;5.20;;;10.20;99.90;;;;;;2076813;28;20500;-71
2022/11/24 00:58:29;;;;;;;20.75;5.50;;;10.20;99.90;;;;;;2077027;28;20439;-71
2022/11/24 00:59:31;;;;;;;11.25;4.00;;;10.10;99.90;;;;;;2077970;28;20058;-71
2022/11/24 01:00:31;;;;;;;16.55;3.63;;;10.10;99.90;;;;;;2076180;28;20025;-71
2022/11/24 01:01:32;;;;;;;14.60;4.72;;;10.20;99.90;;;;;;2077806;28;20027;-71
2022/11/24 01:02:33;;;;;;;16.83;4.60;;;10.10;99.90;;;;;;2076709;28;20029;-71
2022/11/24 01:03:34;;;;;;;19.05;4.40;;;10.10;99.90;;;;;;2076757;28;20040;-71
2022/11/24 01:04:34;;;;;;;21.10;4.97;;;10.10;99.90;;;;;;2078165;28;20641;-71
2022/11/24 01:05:36;;;;;;;13.82;4.65;;;10.10;99.90;;;;;;2077807;28;20079;-71
2022/11/24 01:06:36;;;;;;;17.63;5.43;;;10.10;99.90;;;;;;2077958;28;20113;-71
2022/11/24 01:07:37;;;;;;;16.13;4.80;;;10.10;99.90;;;;;;2077478;28;20053;-71
2022/11/24 01:08:38;;;;;;;12.88;4.30;;;10.10;99.90;;;;;;2078941;28;20141;-71
2022/11/24 01:09:42;;;;;;;18.80;5.00;;;10.10;99.90;;;;;;2074302;28;20044;-71
2022/11/24 01:10:42;;;;;;;16.55;5.13;;;10.00;99.90;;;;;;2077076;28;20489;-71
2022/11/24 01:12:01;;;;;;;17.20;4.70;;;10.10;99.90;;;;;;2076955;28;20441;-71
2022/11/24 01:13:02;;;;;;;16.45;4.30;;;10.00;99.90;;;;;;2075606;28;20026;-71
2022/11/24 01:14:03;;;;;;;16.45;4.35;;;10.00;99.90;;;;;;2075031;28;20037;-71
2022/11/24 01:15:04;;;;;;;15.75;4.13;;;10.00;99.90;;;;;;2077371;28;20040;-71
2022/11/24 01:16:04;;;;;;;18.35;5.40;;;10.00;99.90;;;;;;2075834;28;20030;-71
2022/11/24 01:17:05;;;;;;;19.20;5.20;;;10.00;99.90;;;;;;2077573;28;20045;-71
2022/11/24 01:18:05;;;;;;;16.33;4.20;;;10.00;99.90;;;;;;2076541;28;20041;-71
2022/11/24 01:19:06;;;;;;;20.35;4.70;;;10.00;99.90;;;;;;2077309;28;20033;-71
2022/11/24 01:20:07;;;;;;;19.33;4.82;;;10.00;99.90;;;;;;2077545;28;20148;-71
2022/11/24 01:21:08;;;;;;;20.70;5.47;;;10.00;99.90;;;;;;2077691;28;20408;-71
2022/11/24 01:22:08;;;;;;;19.95;4.93;;;10.00;99.90;;;;;;2075445;28;20039;-71
2022/11/24 01:23:09;;;;;;;18.08;4.30;;;10.00;99.90;;;;;;2079103;28;20117;-71
2022/11/24 01:24:10;;;;;;;15.75;4.57;;;10.00;99.90;;;;;;2077498;28;20040;-71
2022/11/24 01:25:11;;;;;;;18.45;4.65;;;10.00;99.90;;;;;;2076500;28;20034;-71
2022/11/24 01:26:15;;;;;;;16.42;4.50;;;9.90;99.90;;;;;;2077545;28;20682;-71
2022/11/24 01:27:16;;;;;;;14.15;4.13;;;10.00;99.90;;;;;;2078843;28;20515;-71
2022/11/24 01:28:16;;;;;;;14.73;3.95;;;9.90;99.90;;;;;;2078350;28;20416;-71
2022/11/24 01:29:17;;;;;;;22.58;4.85;;;9.90;99.90;;;;;;2078716;28;20026;-71
2022/11/24 01:30:17;;;;;;;14.73;4.75;;;9.90;99.90;;;;;;2076719;28;20025;-71
2022/11/24 01:31:18;;;;;;;14.10;4.05;;;9.90;99.90;;;;;;2078228;28;20026;-71
2022/11/24 01:32:18;;;;;;;18.10;4.90;;;9.90;99.90;;;;;;2079024;28;20075;-71
2022/11/24 01:33:19;;;;;;;17.58;4.70;;;9.90;99.90;;;;;;2084979;28;20021;-71
2022/11/24 01:34:19;;;;;;;18.02;4.18;;;9.90;99.90;;;;;;2086143;28;20014;-71
2022/11/24 01:35:20;;;;;;;15.82;4.25;;;9.90;99.90;;;;;;2084837;28;20048;-71
2022/11/24 01:36:21;;;;;;;14.10;4.03;;;9.90;99.90;;;;;;2078799;28;20115;-71
2022/11/24 01:37:21;;;;;;;22.05;4.75;;;9.90;99.90;;;;;;2077663;28;20516;-71
2022/11/24 01:38:22;;;;;;;18.58;4.75;;;9.90;99.90;;;;;;2077599;28;20035;-71
2022/11/24 01:39:23;;;;;;;17.23;3.80;;;9.90;99.90;;;;;;2079436;28;20052;-71
2022/11/24 01:40:23;;;;;;;16.55;4.85;;;9.90;99.90;;;;;;2077853;28;20087;-71
2022/11/24 01:41:24;;;;;;;21.75;5.18;;;9.90;99.90;;;;;;2077840;28;20379;-71
2022/11/24 01:42:25;;;;;;;20.80;4.07;;;9.90;99.90;;;;;;2078165;28;20037;-71
2022/11/24 01:43:25;;;;;;;16.83;4.90;;;9.90;99.90;;;;;;2078498;28;20140;-71
2022/11/24 01:44:28;;;;;;;19.98;4.88;;;9.90;99.90;;;;;;2078431;28;20029;-71
2022/11/24 01:45:35;;;;;;;17.30;4.32;;;9.90;99.90;;;;;;2079334;28;20025;-71
2022/11/24 01:46:42;;;;;;;20.90;5.78;;;9.90;99.90;;;;;;2077689;28;20068;-71
2022/11/24 01:47:43;;;;;;;18.10;5.38;;;9.80;99.90;;;;;;2078923;28;20694;-71
2022/11/24 01:49:07;;;;;;;20.23;5.63;;;9.80;99.90;;;;;;2075506;28;20550;-71
2022/11/24 01:50:15;;;;;;;14.90;4.40;;;9.80;99.90;;;;;;2077014;28;20409;-71
2022/11/24 01:51:23;;;;;;;19.48;5.10;;;9.80;99.90;;;;;;2077299;28;20061;-71
2022/11/24 01:52:38;;;;;;;15.77;4.03;;;9.80;99.90;;;;;;2077868;28;20537;-71
2022/11/24 01:53:42;;;;;;;18.10;4.70;;;9.80;99.90;;;;;;2077828;28;20405;-71
2022/11/24 01:54:52;;;;;;;16.95;4.18;;;9.80;99.90;;;;;;2077603;28;20034;-71
2022/11/24 01:55:53;;;;;;;16.45;4.65;;;9.80;99.90;;;;;;2077500;28;20072;-71
2022/11/24 01:57:01;;;;;;;18.10;4.25;;;9.80;99.90;;;;;;2079715;28;20104;-71
2022/11/24 01:58:11;;;;;;;15.55;3.83;;;9.80;99.90;;;;;;2076532;28;20136;-71
2022/11/24 01:59:12;;;;;;;;;;;9.80;99.90;;;;;;2078028;28;20073;-71
2022/11/24 02:00:14;;;;;;;16.13;4.70;;;9.70;99.90;;;;;;2083299;28;20537;-71
2022/11/24 02:01:14;;;;;;;14.82;4.45;;;9.70;99.90;;;;;;2083976;28;20021;-71
2022/11/24 02:02:16;;;;;;;16.00;3.80;;;9.70;99.90;;;;;;2084801;28;20026;-71
2022/11/24 02:03:21;;;;;;;16.70;4.57;;;9.70;99.90;;;;;;2084749;28;20913;-71
2022/11/24 02:04:28;;;;;;;18.35;4.80;;;9.70;99.90;;;;;;2078654;28;20025;-71
2022/11/24 02:05:34;;;;;;;14.95;4.05;;;9.70;99.90;;;;;;2079066;28;20116;-71
2022/11/24 02:06:35;;;;;;;18.38;4.65;;;9.70;99.90;;;;;;2077204;28;20036;-71
2022/11/24 02:07:37;;;;;;;18.40;4.90;;;9.70;99.90;;;;;;2076892;28;20021;-71
2022/11/24 02:08:55;;;;;;;11.55;3.95;;;9.70;99.90;;;;;;2077666;28;20029;-71
2022/11/24 02:10:01;;;;;;;15.55;4.13;;;9.80;99.90;;;;;;2078071;28;20026;-71
2022/11/24 02:11:03;;;;;;;19.08;5.70;;;9.80;99.90;;;;;;2079391;28;20029;-71
2022/11/24 02:12:05;;;;;;;20.92;5.35;;;9.80;99.90;;;;;;2078320;28;20022;-71
2022/11/24 02:13:06;;;;;;;15.75;4.20;;;9.80;99.90;;;;;;2077265;28;20030;-71
2022/11/24 02:14:11;;;;;;;17.23;4.38;;;9.80;99.90;;;;;;2079335;28;20029;-71
2022/11/24 02:15:14;;;;;;;14.75;4.22;;;9.80;99.90;;;;;;2077689;28;20481;-71
2022/11/24 02:16:14;;;;;;;15.88;4.45;;;9.80;99.90;;;;;;2077402;28;20037;-71
2022/11/24 02:17:15;;;;;;;17.63;4.60;;;9.80;99.90;;;;;;2078178;28;20048;-71
2022/11/24 02:18:15;;;;;;;17.63;4.55;;;9.80;99.90;;;;;;2077628;28;20103;-71
2022/11/24 02:19:45;;;;;;;19.02;4.50;;;9.80;99.90;;;;;;2077742;28;20028;-71
2022/11/24 02:20:46;;;;;;;21.02;5.00;;;9.80;99.90;;;;;;2077314;28;20049;-71
2022/11/24 02:21:46;;;;;;;17.40;4.55;;;9.80;99.90;;;;;;2076913;28;20091;-71
2022/11/24 02:22:56;;;;;;;18.60;4.45;;;9.80;99.90;;;;;;2077438;28;20455;-71
2022/11/24 02:24:16;;;;;;;17.10;3.95;;;9.80;99.90;;;;;;2073149;28;20033;-71
2022/11/24 02:25:35;;;;;;;25.38;5.00;;;9.80;99.90;;;;;;2076343;28;20392;-71
2022/11/24 02:26:42;;;;;;;15.15;4.10;;;9.80;99.90;;;;;;2077170;28;20469;-71
2022/11/24 02:27:44;;;;;;;14.77;4.60;;;9.80;99.90;;;;;;2076995;28;20626;-71
2022/11/24 02:28:45;;;;;;;21.58;4.95;;;9.90;99.90;;;;;;2077483;28;20096;-71
2022/11/24 02:29:46;;;;;;;16.20;4.05;;;9.90;99.90;;;;;;2075882;28;20033;-71
2022/11/24 02:30:48;;;;;;;18.63;5.32;;;9.90;99.90;;;;;;2075768;28;20036;-71
2022/11/24 02:31:55;;;;;;;19.17;5.05;;;9.90;99.90;;;;;;2075522;28;20124;-71
2022/11/24 02:32:56;;;;;;;25.08;5.28;;;9.90;99.90;;;;;;2076432;28;20029;-71
2022/11/24 02:33:57;;;;;;;17.83;4.55;;;9.90;99.90;;;;;;2077319;28;20036;-71
2022/11/24 02:35:03;;;;;;;18.13;4.35;;;9.90;99.90;;;;;;2077238;28;20030;-71
2022/11/24 02:36:03;;;;;;;19.15;4.70;;;9.90;99.90;;;;;;2077609;28;20021;-71
2022/11/24 02:37:04;;;;;;;18.17;4.53;;;9.90;99.90;;;;;;2077948;28;20029;-71
2022/11/24 02:38:05;;;;;;;11.95;3.53;;;9.90;99.90;;;;;;2078204;28;20060;-71
2022/11/24 02:39:12;;;;;;;16.25;4.40;;;9.90;99.90;;;;;;2076736;28;20026;-71
2022/11/24 02:40:23;;;;;;;17.95;4.40;;;10.00;99.90;;;;;;2078043;28;20030;-71
2022/11/24 02:41:26;;;;;;;25.65;4.32;;;9.90;99.90;;;;;;2077105;28;20025;-71
2022/11/24 02:42:31;;;;;;;18.88;4.40;;;9.90;99.90;;;;;;2075699;28;20164;-71
2022/11/24 02:43:37;;;;;;;19.45;4.20;;;9.90;99.90;;;;;;2077754;28;20029;-71
2022/11/24 02:44:42;;;;;;;16.58;4.78;;;10.00;99.90;;;;;;2075810;28;20025;-71
2022/11/24 02:45:43;;;;;;;17.17;4.28;;;9.90;99.90;;;;;;2078467;28;20053;-71
2022/11/24 02:46:43;;;;;;;14.15;3.90;;;9.90;99.90;;;;;;2077302;28;20033;-71
2022/11/24 02:47:44;;;;;;;17.35;4.50;;;10.00;99.90;;;;;;2077569;28;20493;-71
2022/11/24 02:48:45;;;;;;;20.70;5.20;;;10.00;99.90;;;;;;2077404;28;20034;-71
2022/11/24 02:49:45;;;;;;;15.98;4.05;;;10.00;99.90;;;;;;2077183;28;20014;-71
2022/11/24 02:50:46;;;;;;;18.42;4.22;;;10.00;99.90;;;;;;2076280;28;21415;-71
2022/11/24 02:51:46;;;;;;;19.88;4.50;;;10.00;99.90;;;;;;2076901;28;20096;-71
2022/11/24 02:52:47;;;;;;;22.67;4.82;;;10.00;99.90;;;;;;2076626;28;20647;-71
2022/11/24 02:53:48;;;;;;;17.95;5.13;;;10.00;99.90;;;;;;2078040;28;20200;-71
2022/11/24 02:54:48;;;;;;;16.10;4.72;;;10.00;99.90;;;;;;2077222;28;20034;-71
2022/11/24 02:55:49;;;;;;;17.95;5.00;;;10.00;99.90;;;;;;2077488;28;20037;-71
2022/11/24 02:56:50;;;;;;;22.80;4.80;;;10.00;99.90;;;;;;2077887;28;20541;-71
2022/11/24 02:57:50;;;;;;;15.98;4.45;;;10.00;99.90;;;;;;2075647;28;20024;-71
2022/11/24 02:58:51;;;;;;;23.65;5.13;;;10.00;99.90;;;;;;2076411;28;20033;-71
2022/11/24 02:59:52;;;;;;;23.10;4.78;;;10.00;99.90;;;;;;2077779;28;20085;-71
2022/11/24 03:00:53;;;;;;;20.17;5.53;;;10.00;99.90;;;;;;2075008;28;20025;-71
2022/11/24 03:01:53;;;;;;;22.77;4.72;;;10.00;99.90;;;;;;2077442;28;20784;-71
2022/11/24 03:02:54;;;;;;;16.17;4.55;;;10.10;99.90;;;;;;2076350;28;20029;-71
2022/11/24 03:03:54;;;;;;;18.45;4.93;;;10.00;99.90;;;;;;2077353;28;20083;-71
2022/11/24 03:04:55;;;;;;;15.27;4.88;;;10.00;99.90;;;;;;2076544;28;20026;-71
2022/11/24 03:05:55;;;;;;;19.25;4.65;;;10.00;99.90;;;;;;2076088;28;20435;-71
2022/11/24 03:06:57;;;;;;;20.25;4.65;;;10.00;99.90;;;;;;2075981;28;20080;-71
2022/11/24 03:07:57;;;;;;;21.45;4.97;;;10.00;99.90;;;;;;2078438;28;20040;-71
2022/11/24 03:08:58;;;;;;;17.42;4.50;;;10.00;99.90;;;;;;2075957;28;20109;-71
2022/11/24 03:09:59;;;;;;;17.50;4.95;;;10.00;99.90;;;;;;2077285;28;20033;-71
2022/11/24 03:11:01;;;;;;;21.10;4.85;;;10.00;99.90;;;;;;2075449;28;20547;-71
2022/11/24 03:12:01;;;;;;;20.10;4.75;;;10.00;99.90;;;;;;2076225;28;20068;-71
2022/11/24 03:13:02;;;;;;;16.63;4.95;;;10.00;99.90;;;;;;2078187;28;20047;-71
2022/11/24 03:14:02;;;;;;;18.58;4.82;;;10.00;99.90;;;;;;2077374;28;20037;-71
2022/11/24 03:15:05;;;;;;;14.15;4.55;;;10.00;99.90;;;;;;2076542;28;20451;-71
2022/11/24 03:16:08;;;;;;;18.50;5.78;;;10.00;99.90;;;;;;2077706;28;20041;-71
2022/11/24 03:17:09;;;;;;;16.50;4.40;;;10.00;99.90;;;;;;2077198;28;20025;-71
2022/11/24 03:18:09;;;;;;;18.88;4.30;;;10.00;99.90;;;;;;2077871;28;20619;-71
2022/11/24 03:19:10;;;;;;;13.90;4.35;;;10.00;99.90;;;;;;2075669;28;20060;-71
2022/11/24 03:20:11;;;;;;;15.48;4.78;;;10.00;99.90;;;;;;2077205;28;20036;-71
2022/11/24 03:21:11;;;;;;;15.10;3.97;;;10.00;99.90;;;;;;2076196;28;20038;-71
2022/11/24 03:22:13;;;;;;;19.52;4.70;;;9.90;99.90;;;;;;2078291;28;20028;-71
2022/11/24 03:23:13;;;;;;;21.50;5.10;;;10.00;99.90;;;;;;2077056;28;20135;-71
2022/11/24 03:24:14;;;;;;;16.52;4.78;;;9.90;99.90;;;;;;2076718;28;20030;-71
2022/11/24 03:25:14;;;;;;;17.58;4.55;;;9.90;99.90;;;;;;2075751;28;20041;-71
2022/11/24 03:26:17;;;;;;;15.82;5.05;;;9.90;99.90;;;;;;2077185;28;20052;-71
2022/11/24 03:27:18;;;;;;;18.70;4.07;;;9.90;99.90;;;;;;2076163;28;20105;-71
2022/11/24 03:28:18;;;;;;;18.75;4.43;;;9.90;99.90;;;;;;2077128;28;20539;-71
2022/11/24 03:29:19;;;;;;;17.30;4.72;;;10.00;99.90;;;;;;2075528;28;20114;-71
2022/11/24 03:30:20;;;;;;;16.02;4.72;;;9.90;99.90;;;;;;2077432;28;20104;-71
2022/11/24 03:31:21;;;;;;;20.13;4.80;;;9.90;99.90;;;;;;2078323;28;20696;-71
2022/11/24 03:32:22;;;;;;;21.48;5.40;;;10.00;99.90;;;;;;2076831;28;20026;-71
2022/11/24 03:33:22;;;;;;;18.73;4.53;;;10.00;99.90;;;;;;2076857;28;20064;-71
2022/11/24 03:34:23;;;;;;;19.20;4.65;;;10.00;99.90;;;;;;2077658;28;20059;-71
2022/11/24 03:35:24;;;;;;;20.88;4.60;;;10.00;99.90;;;;;;2077516;28;20040;-71
2022/11/24 03:36:25;;;;;;;21.33;5.72;;;10.00;99.90;;;;;;2073993;28;20720;-71
2022/11/24 03:37:26;;;;;;;20.35;5.00;;;10.00;99.90;;;;;;2077306;28;20380;-71
2022/11/24 03:38:26;;;;;;;21.95;5.30;;;10.00;99.90;;;;;;2075620;28;20025;-71
2022/11/24 03:39:27;;;;;;;16.00;4.40;;;10.00;99.90;;;;;;2074814;28;20037;-71
2022/11/24 03:40:28;;;;;;;20.80;5.10;;;10.00;99.90;;;;;;2076633;28;20021;-71
2022/11/24 03:41:28;;;;;;;14.93;4.50;;;10.00;99.90;;;;;;2076602;28;20034;-71
2022/11/24 03:42:29;;;;;;;20.45;4.85;;;10.00;99.90;;;;;;2076853;28;20052;-71
2022/11/24 03:43:30;;;;;;;18.90;4.57;;;10.00;99.90;;;;;;2077730;28;20017;-71
2022/11/24 03:44:31;;;;;;;14.90;4.63;;;10.00;99.90;;;;;;2075974;28;20044;-71
2022/11/24 03:45:31;;;;;;;18.02;4.82;;;10.00;99.90;;;;;;2078208;28;20517;-71
2022/11/24 03:46:32;;;;;;;18.98;5.35;;;10.00;99.90;;;;;;2077307;28;20034;-71
2022/11/24 03:47:32;;;;;;;22.60;5.03;;;10.00;99.90;;;;;;2084668;28;20018;-71
2022/11/24 03:48:33;;;;;;;19.17;4.68;;;10.00;99.90;;;;;;2081316;28;20033;-71
2022/11/24 03:49:33;;;;;;;17.70;5.38;;;10.00;99.90;;;;;;2077530;28;20136;-71
2022/11/24 03:50:34;;;;;;;18.45;4.97;;;10.00;99.90;;;;;;2076618;28;20048;-71
2022/11/24 03:51:34;;;;;;;19.20;4.35;;;10.00;99.90;;;;;;2076721;28;20049;-71
2022/11/24 03:52:35;;;;;;;17.40;4.70;;;10.00;99.90;;;;;;2076459;28;20024;-71
2022/11/24 03:53:36;;;;;;;19.15;5.05;;;10.00;99.90;;;;;;2076801;28;20025;-71
2022/11/24 03:54:36;;;;;;;17.02;5.40;;;10.00;99.90;;;;;;2075970;28;20029;-71
2022/11/24 03:55:37;;;;;;;18.63;4.82;;;10.00;99.90;;;;;;2076031;28;20105;-71
2022/11/24 03:56:37;;;;;;;18.45;4.93;;;10.00;99.90;;;;;;2075782;28;20033;-71
2022/11/24 03:57:38;;;;;;;18.33;4.95;;;10.10;99.90;;;;;;2076750;28;20108;-71
2022/11/24 03:58:38;;;;;;;19.73;5.25;;;10.10;99.90;;;;;;2076191;28;20087;-71
2022/11/24 03:59:39;;;;;;;21.35;6.28;;;10.10;99.90;;;;;;2077795;28;20128;-71
2022/11/24 04:00:39;;;;;;;22.48;5.18;;;10.10;99.90;;;;;;2076518;28;20026;-71
2022/11/24 04:01:40;;;;;;;15.88;4.70;;;10.10;99.90;;;;;;2077577;28;20048;-71
2022/11/24 04:02:41;;;;;;;17.50;4.50;;;10.10;99.90;;;;;;2077001;28;20030;-71
2022/11/24 04:03:41;;;;;;;15.63;4.45;;;10.10;99.90;;;;;;2077624;28;20029;-71
2022/11/24 04:04:42;;;;;;;17.67;4.95;;;10.10;99.90;;;;;;2075713;28;20032;-71
2022/11/24 04:05:42;;;;;;;17.90;4.65;;;10.00;99.90;;;;;;2075783;28;20029;-71
2022/11/24 04:06:43;;;;;;;19.38;4.78;;;10.00;99.90;;;;;;2076864;28;20021;-71
2022/11/24 04:07:43;;;;;;;20.42;4.65;;;10.00;99.90;;;;;;2077886;28;20025;-71
2022/11/24 04:08:44;;;;;;;18.67;5.03;;;10.00;99.90;;;;;;2079798;28;20473;-71
2022/11/24 04:09:44;;;;;;;22.73;4.68;;;10.00;99.90;;;;;;2079265;28;20416;-71
2022/11/24 04:10:51;;;;;;;17.02;4.93;;;10.00;99.90;;;;;;2084727;28;20021;-71
2022/11/24 04:13:13;;;;;;;19.15;4.28;;;10.00;99.90;;;;;;2075472;28;20025;-71
2022/11/24 04:14:14;;;;;;;19.55;5.53;;;10.00;99.90;;;;;;2074456;28;20030;-71
2022/11/24 04:15:17;;;;;;;13.57;4.50;;;10.00;99.90;;;;;;2076161;28;20813;-71
2022/11/24 04:16:17;;;;;;;20.58;5.38;;;10.00;99.90;;;;;;2077208;28;20065;-71
2022/11/24 04:17:18;;;;;;;15.32;4.50;;;10.00;99.90;;;;;;2077398;28;20034;-72
2022/11/24 04:18:19;;;;;;;20.33;5.10;;;10.00;99.90;;;;;;2077383;28;20049;-71
2022/11/24 04:19:20;;;;;;;21.15;4.88;;;10.00;99.90;;;;;;2083280;28;20029;-71
2022/11/24 04:20:20;;;;;;;19.58;4.97;;;10.00;99.90;;;;;;2083572;28;20033;-71
2022/11/24 04:21:21;;;;;;;16.35;4.30;;;10.00;99.90;;;;;;2075447;28;20040;-72
2022/11/24 04:22:21;;;;;;;19.75;4.85;;;10.00;99.90;;;;;;2077109;28;20017;-72
2022/11/24 04:23:22;;;;;;;14.02;4.40;;;10.10;99.90;;;;;;2075681;28;20033;-71
2022/11/24 04:24:22;;;;;;;17.15;5.00;;;10.10;99.90;;;;;;2076048;28;20484;-71
2022/11/24 04:25:23;;;;;;;18.33;5.10;;;10.10;99.90;;;;;;2075453;28;20080;-71
2022/11/24 04:26:24;;;;;;;18.35;5.10;;;10.10;99.90;;;;;;2077354;28;20022;-71
2022/11/24 04:27:24;;;;;;;18.88;4.53;;;10.10;99.90;;;;;;2074426;28;20017;-71
2022/11/24 04:28:25;;;;;;;19.17;5.22;;;10.10;99.90;;;;;;2073489;28;20517;-71
2022/11/24 04:29:25;;;;;;;24.02;5.30;;;10.10;99.90;;;;;;2075424;28;20061;-71
2022/11/24 04:30:27;;;;;;;22.80;5.35;;;10.10;99.90;;;;;;2076139;28;20030;-71
2022/11/24 04:31:27;;;;;;;18.23;4.63;;;10.20;99.90;;;;;;2074706;28;20156;-71
2022/11/24 04:32:28;;;;;;;18.30;4.90;;;10.10;99.90;;;;;;2077103;28;20037;-71
2022/11/24 04:33:28;;;;;;;17.17;4.95;;;10.10;99.90;;;;;;2076159;28;20070;-71
2022/11/24 04:34:29;;;;;;;19.30;4.68;;;10.10;99.90;;;;;;2075835;28;20083;-71
2022/11/24 04:35:29;;;;;;;18.95;4.80;;;10.20;99.90;;;;;;2077964;28;20761;-71
2022/11/24 04:36:30;;;;;;;21.48;5.63;;;10.20;99.90;;;;;;2076134;28;20025;-71
2022/11/24 04:37:30;;;;;;;17.67;5.13;;;10.20;99.90;;;;;;2075433;28;20029;-71
2022/11/24 04:38:31;;;;;;;18.85;4.90;;;10.20;99.90;;;;;;2076167;28;20025;-71
2022/11/24 04:39:32;;;;;;;19.38;4.53;;;10.20;99.90;;;;;;2076298;28;20668;-71
2022/11/24 04:40:32;;;;;;;21.77;5.30;;;10.20;99.90;;;;;;2075927;28;20030;-71
2022/11/24 04:41:33;;;;;;;20.92;5.85;;;10.20;99.90;;;;;;2076088;28;20072;-71
2022/11/24 04:42:34;;;;;;;26.30;6.32;;;10.30;99.90;;;;;;2076591;28;20057;-71
2022/11/24 04:43:34;;;;;;;19.02;4.72;;;10.30;99.90;;;;;;2077185;28;20021;-71
2022/11/24 04:44:35;;;;;;;25.20;5.53;;;10.30;99.90;;;;;;2075796;28;20037;-71
2022/11/24 04:45:36;;;;;;;21.10;5.53;;;10.30;99.90;;;;;;2077916;28;20037;-71
2022/11/24 04:46:36;;;;;;;18.67;5.38;;;10.30;99.90;;;;;;2083605;28;20021;-71
2022/11/24 04:47:37;;;;;;;17.58;5.75;;;10.30;99.90;;;;;;2083387;28;20132;-71
2022/11/24 04:48:38;;;;;;;20.80;5.40;;;10.30;99.90;;;;;;2077825;28;20026;-71
2022/11/24 04:49:38;;;;;;;18.13;5.05;;;10.30;99.90;;;;;;2076277;28;20054;-71
2022/11/24 04:50:39;;;;;;;24.08;5.82;;;10.30;99.90;;;;;;2075224;28;20021;-71
2022/11/24 04:51:40;;;;;;;27.75;6.00;;;10.30;99.90;;;;;;2077341;28;20025;-71
2022/11/24 04:52:42;;;;;;;20.73;4.97;;;10.30;99.90;;;;;;2076393;28;20041;-71
2022/11/24 04:53:42;;;;;;;27.17;5.93;;;10.30;99.90;;;;;;2078081;28;20022;-71
2022/11/24 04:54:43;;;;;;;26.08;6.00;;;10.40;99.90;;;;;;2074598;28;20029;-71
2022/11/24 04:55:43;;;;;;;20.20;5.45;;;10.30;99.90;;;;;;2075542;28;20449;-71
2022/11/24 04:56:44;;;;;;;21.70;5.50;;;10.30;99.90;;;;;;2076877;28;20025;-71
2022/11/24 04:57:44;;;;;;;26.40;5.88;;;10.40;99.90;;;;;;2077234;28;20037;-71
2022/11/24 04:58:47;;;;;;;22.50;5.75;;;10.40;99.90;;;;;;2076656;28;20029;-71
2022/11/24 04:59:51;;;;;;;22.13;5.60;;;10.40;99.90;;;;;;2076436;28;20036;-72
2022/11/24 05:00:52;;;;;;;21.35;5.82;;;10.40;99.90;;;;;;2076151;28;20040;-72
2022/11/24 05:01:52;;;;;;;18.42;5.82;;;10.40;99.90;;;;;;2076154;28;20029;-72
2022/11/24 05:02:53;;;;;;;26.33;5.13;;;10.40;99.90;;;;;;2075221;28;20029;-72
2022/11/24 05:03:54;;;;;;;20.17;5.43;;;10.40;99.90;;;;;;2076923;28;20814;-72
2022/11/24 05:04:55;;;;;;;23.55;5.38;;;10.40;99.90;;;;;;2076383;28;20028;-72
2022/11/24 05:05:57;;;;;;;20.00;5.03;;;10.40;99.90;;;;;;2077432;28;20014;-72
2022/11/24 05:06:58;;;;;;;17.55;5.22;;;10.40;99.90;;;;;;2076310;28;20025;-72
2022/11/24 05:07:59;;;;;;;21.00;5.00;;;10.40;99.90;;;;;;2077413;28;20389;-72
2022/11/24 05:08:59;;;;;;;22.75;5.90;;;10.40;99.90;;;;;;2076015;28;20013;-72
2022/11/24 05:11:19;;;;;;;17.92;5.38;;;10.40;99.90;;;;;;2077074;28;20417;-71
2022/11/24 05:12:20;;;;;;;23.08;5.80;;;10.40;99.90;;;;;;2075735;28;20100;-71
2022/11/24 05:13:20;;;;;;;22.40;5.57;;;10.40;99.90;;;;;;2075563;28;20025;-71
2022/11/24 05:14:21;;;;;;;21.00;5.55;;;10.40;99.90;;;;;;2067735;28;20084;-72
2022/11/24 05:15:22;;;;;;;22.20;5.53;;;10.50;99.90;;;;;;2067390;28;20488;-72
2022/11/24 05:16:22;;;;;;;25.70;5.60;;;10.50;99.90;;;;;;2068866;28;20053;-72
2022/11/24 05:17:23;;;;;;;19.20;5.00;;;10.50;99.90;;;;;;2076505;28;20057;-72
2022/11/24 05:18:24;;;;;;;28.20;5.80;;;10.50;99.90;;;;;;2075614;28;20112;-72
2022/11/24 05:19:24;;;;;;;22.17;5.43;;;10.50;99.90;;;;;;2075420;28;20053;-72
2022/11/24 05:20:25;;;;;;;26.88;5.65;;;10.50;99.90;;;;;;2083242;28;20208;-72
2022/11/24 05:21:26;;;;;;;25.33;5.28;;;10.50;99.90;;;;;;2072589;28;20022;-72